createdAt,value
2019-03-09T00:02:50.160Z,4.68
2019-03-09T00:05:18.925Z,4.65
2019-03-09T00:07:47.543Z,4.78
2019-03-09T00:10:16.103Z,4.78
2019-03-09T00:12:47.646Z,4.82
2019-03-09T00:15:16.360Z,4.84
2019-03-09T00:17:44.984Z,4.82
2019-03-09T00:20:13.917Z,4.82
2019-03-09T00:22:44.188Z,4.82
2019-03-09T00:25:24.200Z,4.82
2019-03-09T00:27:57.437Z,4.82
2019-03-09T00:30:30.444Z,4.95
2019-03-09T00:33:01.834Z,4.95
2019-03-09T00:35:30.485Z,4.89
2019-03-09T00:37:59.045Z,5.00
2019-03-09T00:40:27.627Z,4.97
2019-03-09T00:42:58.853Z,4.96
2019-03-09T00:45:27.581Z,5.11
2019-03-09T00:47:56.213Z,5.13
2019-03-09T00:50:27.487Z,5.13
2019-03-09T00:52:58.856Z,5.17
2019-03-09T00:55:27.818Z,5.09
2019-03-09T00:57:56.398Z,5.09
2019-03-09T01:00:28.130Z,5.21
2019-03-09T01:02:59.459Z,5.28
2019-03-09T01:05:28.037Z,5.36
2019-03-09T01:07:56.650Z,5.31
2019-03-09T01:10:25.390Z,5.30
2019-03-09T01:12:54.044Z,5.30
2019-03-09T01:15:22.758Z,5.28
2019-03-09T01:17:51.424Z,5.24
2019-03-09T01:20:20.355Z,5.24
2019-03-09T01:22:51.957Z,5.32
2019-03-09T01:25:21.683Z,5.32
2019-03-09T01:27:53.070Z,5.34
2019-03-09T01:30:24.653Z,5.37
2019-03-09T01:32:56.342Z,5.37
2019-03-09T01:35:27.686Z,5.38
2019-03-09T01:37:56.409Z,5.38
2019-03-09T01:40:27.753Z,5.50
2019-03-09T01:42:59.333Z,5.48
2019-03-09T01:45:28.360Z,5.59
2019-03-09T01:47:57.392Z,5.62
2019-03-09T01:50:26.027Z,5.65
2019-03-09T01:52:54.783Z,5.74
2019-03-09T01:55:23.365Z,5.76
2019-03-09T01:57:52.008Z,5.75
2019-03-09T02:00:21.171Z,5.75
2019-03-09T02:02:53.031Z,5.68
2019-03-09T02:05:21.644Z,5.67
2019-03-09T02:07:50.685Z,5.67
2019-03-09T02:10:22.376Z,5.68
2019-03-09T02:12:53.746Z,5.68
2019-03-09T02:15:22.380Z,5.65
2019-03-09T02:17:51.034Z,5.75
2019-03-09T02:20:22.725Z,5.72
2019-03-09T02:22:54.022Z,5.82
2019-03-09T02:25:22.648Z,5.85
2019-03-09T02:27:54.161Z,5.83
2019-03-09T02:30:25.474Z,5.84
2019-03-09T02:32:57.009Z,5.89
2019-03-09T02:35:28.242Z,5.96
2019-03-09T02:37:58.449Z,5.93
2019-03-09T02:40:30.522Z,6.06
2019-03-09T02:43:02.006Z,6.06
2019-03-09T02:45:33.576Z,6.02
2019-03-09T02:48:05.875Z,6.02
2019-03-09T02:50:34.582Z,6.05
2019-03-09T02:53:05.959Z,6.11
2019-03-09T02:55:38.784Z,6.07
2019-03-09T02:58:10.369Z,6.07
2019-03-09T03:00:40.644Z,6.07
2019-03-09T03:03:09.950Z,6.00
2019-03-09T03:05:41.737Z,6.10
2019-03-09T03:08:13.315Z,6.13
2019-03-09T03:10:42.132Z,6.16
2019-03-09T03:13:10.744Z,6.13
2019-03-09T03:15:39.469Z,6.06
2019-03-09T03:18:11.113Z,6.09
2019-03-09T03:20:42.654Z,6.07
2019-03-09T03:23:11.279Z,6.06
2019-03-09T03:25:40.195Z,6.06
2019-03-09T03:28:11.924Z,6.08
2019-03-09T03:30:40.640Z,6.08
2019-03-09T03:33:11.968Z,6.09
2019-03-09T03:35:40.573Z,6.11
2019-03-09T03:38:12.078Z,6.10
2019-03-09T03:40:43.555Z,6.10
2019-03-09T03:43:12.110Z,6.13
2019-03-09T03:45:43.233Z,6.14
2019-03-09T03:48:14.535Z,6.18
2019-03-09T03:50:43.150Z,6.16
2019-03-09T03:53:11.781Z,6.15
2019-03-09T03:55:45.033Z,6.13
2019-03-09T03:58:16.705Z,6.15
2019-03-09T04:00:45.659Z,6.19
2019-03-09T04:03:14.252Z,6.21
2019-03-09T04:05:42.991Z,6.19
2019-03-09T04:08:11.913Z,6.21
2019-03-09T04:10:40.557Z,6.27
2019-03-09T04:13:12.748Z,6.25
2019-03-09T04:15:41.366Z,6.32
2019-03-09T04:18:12.750Z,6.27
2019-03-09T04:20:41.635Z,6.31
2019-03-09T04:23:13.249Z,6.35
2019-03-09T04:25:41.888Z,6.36
2019-03-09T04:28:13.559Z,6.35
2019-03-09T04:30:42.181Z,6.41
2019-03-09T04:33:14.010Z,6.38
2019-03-09T04:35:42.604Z,6.37
2019-03-09T04:38:14.191Z,6.34
2019-03-09T04:40:45.854Z,6.34
2019-03-09T04:43:16.121Z,6.34
2019-03-09T04:45:47.695Z,6.32
2019-03-09T04:48:19.379Z,6.30
2019-03-09T04:50:50.630Z,6.30
2019-03-09T04:53:22.175Z,6.31
2019-03-09T04:55:50.833Z,6.27
2019-03-09T04:58:22.110Z,6.36
2019-03-09T05:00:50.680Z,6.36
2019-03-09T05:03:22.294Z,6.40
2019-03-09T05:05:53.694Z,6.40
2019-03-09T05:08:28.282Z,6.46
2019-03-09T05:11:00.297Z,6.56
2019-03-09T05:13:32.137Z,6.61
2019-03-09T05:16:03.395Z,6.67
2019-03-09T05:18:34.592Z,6.73
2019-03-09T05:21:03.341Z,6.74
2019-03-09T05:23:35.118Z,6.71
2019-03-09T05:26:09.441Z,6.59
2019-03-09T05:28:44.304Z,6.52
2019-03-09T05:31:12.912Z,6.48
2019-03-09T05:33:44.490Z,6.37
2019-03-09T05:36:13.456Z,6.29
2019-03-09T05:38:42.021Z,6.23
2019-03-09T05:41:10.632Z,6.10
2019-03-09T05:43:42.538Z,6.13
2019-03-09T05:46:11.156Z,6.03
2019-03-09T05:48:42.844Z,6.06
2019-03-09T05:51:11.587Z,6.08
2019-03-09T05:53:40.215Z,5.99
2019-03-09T05:56:09.764Z,5.99
2019-03-09T05:58:38.390Z,6.06
2019-03-09T06:01:09.911Z,6.00
2019-03-09T06:03:41.182Z,5.98
2019-03-09T06:06:12.619Z,5.98
2019-03-09T06:08:44.108Z,5.99
2019-03-09T06:11:13.138Z,5.92
2019-03-09T06:13:41.761Z,5.90
2019-03-09T06:16:13.857Z,5.89
2019-03-09T06:18:42.470Z,5.80
2019-03-09T06:21:13.845Z,5.77
2019-03-09T06:23:42.463Z,5.83
2019-03-09T06:26:11.028Z,5.68
2019-03-09T06:28:42.394Z,5.68
2019-03-09T06:31:10.969Z,5.72
2019-03-09T06:33:39.845Z,5.73
2019-03-09T06:36:17.637Z,5.64
2019-03-09T06:38:57.391Z,5.64
2019-03-09T06:41:31.872Z,5.72
2019-03-09T06:44:00.493Z,5.69
2019-03-09T06:46:29.218Z,5.68
2019-03-09T06:48:57.857Z,5.73
2019-03-09T06:51:26.562Z,5.73
2019-03-09T06:53:57.730Z,5.73
2019-03-09T06:56:29.341Z,5.71
2019-03-09T06:59:00.769Z,5.71
2019-03-09T07:01:29.335Z,5.72
2019-03-09T07:04:00.821Z,5.68
2019-03-09T07:06:29.445Z,5.68
2019-03-09T07:09:01.057Z,5.70
2019-03-09T07:11:32.947Z,5.69
2019-03-09T07:14:39.685Z,5.75
2019-03-09T07:17:08.394Z,5.73
2019-03-09T07:19:38.558Z,5.71
2019-03-09T07:22:08.626Z,5.62
2019-03-09T07:24:48.017Z,5.62
2019-03-09T07:27:17.141Z,5.72
2019-03-09T07:29:48.671Z,5.75
2019-03-09T07:32:20.211Z,5.72
2019-03-09T07:34:48.787Z,5.76
2019-03-09T07:37:20.212Z,5.82
2019-03-09T07:39:51.774Z,5.95
2019-03-09T07:42:23.064Z,5.95
2019-03-09T07:44:51.684Z,6.08
2019-03-09T07:47:20.298Z,6.11
2019-03-09T07:49:52.003Z,6.19
2019-03-09T07:52:50.505Z,6.30
2019-03-09T07:55:22.843Z,6.28
2019-03-09T07:57:57.680Z,6.35
2019-03-09T08:00:26.290Z,6.35
2019-03-09T08:02:54.916Z,6.42
2019-03-09T08:05:26.411Z,6.49
2019-03-09T08:07:57.995Z,6.49
2019-03-09T08:10:28.690Z,6.49
2019-03-09T08:12:57.476Z,6.70
2019-03-09T08:15:28.849Z,6.86
2019-03-09T08:18:00.530Z,6.94
2019-03-09T08:20:29.167Z,7.02
2019-03-09T08:23:00.864Z,7.05
2019-03-09T08:25:32.233Z,7.05
2019-03-09T08:28:00.871Z,7.06
2019-03-09T08:30:31.969Z,7.02
2019-03-09T08:33:03.410Z,7.14
2019-03-09T08:35:35.033Z,7.15
2019-03-09T08:38:03.589Z,7.27
2019-03-09T08:40:34.949Z,7.58
2019-03-09T08:43:03.499Z,7.80
2019-03-09T08:45:32.438Z,7.98
2019-03-09T08:48:00.999Z,8.14
2019-03-09T08:50:29.973Z,8.30
2019-03-09T08:52:58.647Z,8.32
2019-03-09T08:55:27.270Z,8.45
2019-03-09T08:57:55.808Z,8.58
2019-03-09T09:00:32.594Z,8.74
2019-03-09T09:03:01.282Z,8.72
2019-03-09T09:05:29.926Z,8.71
2019-03-09T09:07:58.469Z,8.86
2019-03-09T09:10:27.212Z,8.78
2019-03-09T09:12:55.842Z,8.70
2019-03-09T09:15:24.476Z,8.57
2019-03-09T09:17:53.183Z,8.60
2019-03-09T09:20:24.053Z,8.72
2019-03-09T09:22:52.772Z,8.95
2019-03-09T09:25:24.951Z,9.06
2019-03-09T09:27:55.234Z,8.97
2019-03-09T09:30:28.771Z,9.07
2019-03-09T09:32:57.406Z,9.19
2019-03-09T09:35:26.117Z,9.17
2019-03-09T09:37:54.651Z,9.25
2019-03-09T09:40:27.703Z,9.48
2019-03-09T09:42:56.320Z,9.68
2019-03-09T09:45:28.071Z,9.84
2019-03-09T09:47:56.684Z,9.87
2019-03-09T09:50:28.376Z,9.87
2019-03-09T09:52:56.991Z,10.27
2019-03-09T09:55:25.602Z,10.35
2019-03-09T09:57:57.498Z,10.50
2019-03-09T10:00:29.691Z,10.35
2019-03-09T10:02:58.239Z,10.30
2019-03-09T10:05:27.091Z,10.30
2019-03-09T10:07:58.318Z,10.48
2019-03-09T10:10:30.101Z,10.74
2019-03-09T10:12:58.763Z,10.84
2019-03-09T10:15:30.007Z,10.47
2019-03-09T10:17:58.524Z,10.39
2019-03-09T10:20:30.347Z,10.44
2019-03-09T10:23:04.529Z,10.51
2019-03-09T10:25:35.551Z,10.26
2019-03-09T10:28:04.187Z,10.02
2019-03-09T10:30:32.940Z,9.87
2019-03-09T10:33:01.891Z,9.97
2019-03-09T10:35:30.467Z,9.89
2019-03-09T10:37:59.419Z,9.98
2019-03-09T10:40:31.541Z,10.09
2019-03-09T10:43:00.251Z,10.10
2019-03-09T10:45:28.869Z,9.97
2019-03-09T10:47:57.805Z,9.81
2019-03-09T10:50:29.473Z,9.77
2019-03-09T10:53:01.004Z,9.88
2019-03-09T10:55:31.817Z,10.00
2019-03-09T10:58:00.493Z,10.21
2019-03-09T11:00:32.395Z,10.47
2019-03-09T11:03:01.633Z,10.63
2019-03-09T11:05:31.285Z,10.79
2019-03-09T11:08:00.642Z,10.81
2019-03-09T11:10:29.402Z,10.66
2019-03-09T11:13:00.761Z,10.77
2019-03-09T11:15:32.549Z,10.67
2019-03-09T11:18:03.916Z,10.64
2019-03-09T11:20:38.613Z,10.73
2019-03-09T11:23:10.339Z,10.62
2019-03-09T11:25:39.168Z,10.72
2019-03-09T11:28:11.163Z,10.76
2019-03-09T11:30:40.522Z,10.73
2019-03-09T11:33:12.181Z,10.57
2019-03-09T11:35:43.770Z,10.53
2019-03-09T11:38:12.400Z,10.50
2019-03-09T11:40:43.974Z,10.54
2019-03-09T11:43:12.536Z,10.45
2019-03-09T11:45:44.176Z,10.65
2019-03-09T11:48:13.044Z,10.86
2019-03-09T11:50:41.627Z,11.35
2019-03-09T11:53:13.566Z,11.50
2019-03-09T11:55:42.133Z,11.55
2019-03-09T11:58:13.846Z,11.55
2019-03-09T12:00:44.281Z,11.55
2019-03-09T12:03:15.865Z,11.18
2019-03-09T12:05:44.478Z,11.20
2019-03-09T12:08:13.055Z,11.15
2019-03-09T12:10:44.890Z,11.04
2019-03-09T12:13:14.845Z,11.27
2019-03-09T12:15:46.367Z,11.11
2019-03-09T12:18:17.921Z,11.14
2019-03-09T12:20:46.529Z,10.88
2019-03-09T12:23:20.990Z,10.84
2019-03-09T12:25:50.575Z,10.88
2019-03-09T12:28:19.551Z,11.13
2019-03-09T12:30:48.167Z,11.30
2019-03-09T12:33:19.482Z,11.41
2019-03-09T12:35:48.093Z,11.39
2019-03-09T12:38:16.674Z,11.29
2019-03-09T12:40:45.305Z,11.34
2019-03-09T12:43:16.938Z,11.30
2019-03-09T12:45:45.809Z,11.31
2019-03-09T12:48:14.724Z,11.13
2019-03-09T12:50:43.404Z,11.23
2019-03-09T12:53:14.067Z,11.32
2019-03-09T12:55:42.704Z,11.33
2019-03-09T12:58:11.344Z,11.20
2019-03-09T13:00:40.465Z,11.24
2019-03-09T13:03:09.131Z,11.25
2019-03-09T13:05:39.217Z,11.47
2019-03-09T13:08:09.627Z,11.53
2019-03-09T13:10:40.546Z,11.38
2019-03-09T13:13:13.351Z,11.45
2019-03-09T13:15:43.347Z,11.51
2019-03-09T13:18:16.507Z,11.48
2019-03-09T13:20:45.307Z,11.52
2019-03-09T13:23:13.959Z,11.66
2019-03-09T13:25:45.545Z,11.48
2019-03-09T13:28:14.181Z,11.45
2019-03-09T13:30:42.797Z,11.56
2019-03-09T13:33:11.441Z,11.80
2019-03-09T13:35:43.071Z,11.77
2019-03-09T13:38:15.072Z,11.79
2019-03-09T13:40:43.702Z,12.13
2019-03-09T13:43:13.388Z,12.35
2019-03-09T13:45:44.654Z,12.35
2019-03-09T13:48:14.778Z,12.27
2019-03-09T13:50:43.427Z,12.39
2019-03-09T13:53:14.804Z,12.31
2019-03-09T13:55:43.426Z,12.75
2019-03-09T13:58:14.808Z,12.57
2019-03-09T14:00:46.426Z,12.63
2019-03-09T14:03:17.814Z,12.43
2019-03-09T14:05:49.121Z,12.47
2019-03-09T14:08:17.762Z,12.67
2019-03-09T14:10:46.381Z,12.68
2019-03-09T14:13:17.883Z,12.82
2019-03-09T14:15:49.594Z,12.68
2019-03-09T14:18:21.534Z,12.84
2019-03-09T14:20:50.222Z,13.04
2019-03-09T14:23:18.862Z,12.85
2019-03-09T14:25:47.432Z,13.05
2019-03-09T14:28:16.025Z,13.11
2019-03-09T14:30:47.619Z,13.26
2019-03-09T14:33:16.331Z,13.23
2019-03-09T14:35:48.294Z,13.19
2019-03-09T14:38:16.846Z,13.18
2019-03-09T14:40:45.458Z,13.25
2019-03-09T14:43:16.760Z,13.38
2019-03-09T14:45:48.355Z,13.51
2019-03-09T14:48:19.532Z,13.71
2019-03-09T14:50:51.051Z,13.59
2019-03-09T14:53:22.316Z,13.55
2019-03-09T14:55:54.517Z,13.71
2019-03-09T14:58:26.614Z,13.81
2019-03-09T15:00:58.002Z,13.62
2019-03-09T15:03:26.719Z,13.50
2019-03-09T15:05:55.334Z,13.23
2019-03-09T15:08:26.706Z,13.11
2019-03-09T15:10:58.613Z,13.03
2019-03-09T15:13:29.821Z,12.79
2019-03-09T15:15:58.503Z,12.56
2019-03-09T15:18:27.119Z,12.14
2019-03-09T15:20:55.748Z,11.91
2019-03-09T15:23:27.239Z,11.91
2019-03-09T15:25:58.858Z,11.86
2019-03-09T15:28:28.491Z,11.79
2019-03-09T15:31:00.108Z,11.66
2019-03-09T15:33:29.260Z,11.62
2019-03-09T15:36:01.219Z,11.59
2019-03-09T15:38:32.638Z,11.51
2019-03-09T15:41:04.428Z,11.38
2019-03-09T15:43:35.823Z,11.27
2019-03-09T15:46:07.661Z,11.33
2019-03-09T15:48:39.523Z,11.17
2019-03-09T15:51:08.151Z,11.18
2019-03-09T15:53:36.864Z,11.07
2019-03-09T15:56:08.365Z,11.10
2019-03-09T15:58:38.520Z,10.82
2019-03-09T16:01:09.809Z,10.43
2019-03-09T16:03:38.374Z,9.85
2019-03-09T16:06:10.115Z,9.04
2019-03-09T16:08:38.758Z,8.59
2019-03-09T16:11:07.715Z,8.29
2019-03-09T16:13:40.695Z,8.26
2019-03-09T16:16:09.333Z,8.28
2019-03-09T16:18:44.013Z,8.38
2019-03-09T16:21:13.104Z,8.48
2019-03-09T16:23:44.706Z,8.60
2019-03-09T16:26:13.440Z,8.68
2019-03-09T16:28:42.832Z,8.56
2019-03-09T16:31:14.450Z,8.04
2019-03-09T16:33:45.945Z,7.36
2019-03-09T16:36:17.963Z,6.85
2019-03-09T16:38:46.593Z,6.48
2019-03-09T16:41:15.630Z,6.48
2019-03-09T16:43:44.203Z,6.37
2019-03-09T16:46:12.788Z,6.22
2019-03-09T16:48:41.803Z,6.11
2019-03-09T16:51:10.429Z,6.05
2019-03-09T16:53:39.037Z,6.00
2019-03-09T16:56:07.695Z,6.08
2019-03-09T16:58:36.266Z,5.97
2019-03-09T17:01:09.210Z,5.90
2019-03-09T17:03:40.579Z,5.89
2019-03-09T17:06:12.414Z,5.81
2019-03-09T17:08:44.061Z,5.82
2019-03-09T17:11:14.186Z,5.82
2019-03-09T17:13:42.743Z,5.75
2019-03-09T17:16:11.442Z,5.81
2019-03-09T17:18:39.983Z,5.81
2019-03-09T17:21:11.162Z,5.95
2019-03-09T17:23:39.709Z,5.95
2019-03-09T17:26:11.260Z,5.87
2019-03-09T17:28:39.878Z,5.89
2019-03-09T17:31:11.440Z,5.87
2019-03-09T17:33:40.104Z,5.87
2019-03-09T17:36:08.691Z,5.85
2019-03-09T17:38:40.201Z,5.84
2019-03-09T17:41:09.154Z,5.75
2019-03-09T17:43:39.262Z,5.80
2019-03-09T17:46:10.644Z,5.84
2019-03-09T17:48:41.946Z,5.83
2019-03-09T17:51:13.548Z,5.99
2019-03-09T17:53:42.165Z,5.97
2019-03-09T17:56:13.651Z,6.00
2019-03-09T17:58:45.368Z,5.92
2019-03-09T18:01:13.950Z,6.02
2019-03-09T18:03:42.503Z,5.96
2019-03-09T18:06:14.567Z,5.95
2019-03-09T18:08:43.114Z,5.75
2019-03-09T18:11:12.317Z,5.75
2019-03-09T18:13:40.950Z,5.45
2019-03-09T18:16:12.949Z,5.45
2019-03-09T18:18:41.567Z,5.29
2019-03-09T18:21:12.954Z,5.30
2019-03-09T18:23:41.585Z,5.17
2019-03-09T18:26:13.190Z,5.17
2019-03-09T18:28:42.424Z,5.28
2019-03-09T18:31:11.031Z,5.23
2019-03-09T18:33:39.614Z,5.24
2019-03-09T18:36:08.270Z,5.42
2019-03-09T18:38:40.564Z,5.42
2019-03-09T18:41:12.061Z,5.55
2019-03-09T18:43:40.674Z,5.55
2019-03-09T18:46:09.285Z,5.58
2019-03-09T18:48:39.453Z,5.56
2019-03-09T18:51:10.724Z,5.59
2019-03-09T18:53:39.750Z,5.55
2019-03-09T18:56:11.431Z,5.56
2019-03-09T18:58:43.014Z,5.48
2019-03-09T19:01:11.946Z,5.46
2019-03-09T19:03:40.977Z,5.49
2019-03-09T19:06:09.612Z,5.45
2019-03-09T19:08:38.228Z,5.47
2019-03-09T19:11:09.515Z,5.57
2019-03-09T19:13:41.508Z,5.65
2019-03-09T19:16:13.093Z,5.73
2019-03-09T19:18:41.701Z,5.76
2019-03-09T19:21:10.533Z,5.78
2019-03-09T19:23:39.581Z,5.72
2019-03-09T19:26:09.860Z,5.85
2019-03-09T19:28:38.500Z,5.82
2019-03-09T19:31:08.676Z,5.85
2019-03-09T19:33:40.801Z,5.90
2019-03-09T19:36:09.344Z,5.83
2019-03-09T19:38:41.464Z,5.83
2019-03-09T19:41:09.995Z,5.81
2019-03-09T19:43:40.409Z,5.85
2019-03-09T19:46:12.178Z,5.91
2019-03-09T19:48:43.770Z,5.99
2019-03-09T19:51:15.663Z,6.05
2019-03-09T19:53:44.282Z,6.03
2019-03-09T19:56:13.005Z,6.10
2019-03-09T19:58:44.596Z,6.16
2019-03-09T20:01:16.185Z,6.17
2019-03-09T20:03:45.210Z,6.17
2019-03-09T20:06:13.819Z,6.21
2019-03-09T20:08:45.409Z,6.30
2019-03-09T20:11:15.186Z,6.35
2019-03-09T20:13:46.553Z,6.31
2019-03-09T20:16:17.922Z,6.37
2019-03-09T20:18:49.221Z,6.40
2019-03-09T20:21:17.842Z,6.37
2019-03-09T20:23:46.954Z,6.38
2019-03-09T20:26:15.598Z,6.35
2019-03-09T20:28:44.213Z,6.31
2019-03-09T20:31:13.226Z,6.35
2019-03-09T20:33:41.845Z,6.35
2019-03-09T20:36:10.859Z,6.29
2019-03-09T20:38:39.488Z,6.24
2019-03-09T20:41:14.136Z,6.24
2019-03-09T20:43:46.128Z,6.12
2019-03-09T20:46:18.128Z,6.06
2019-03-09T20:48:49.510Z,6.07
2019-03-09T20:51:18.120Z,5.96
2019-03-09T20:53:50.134Z,5.96
2019-03-09T20:56:18.730Z,6.09
2019-03-09T20:58:50.512Z,6.07
2019-03-09T21:01:19.130Z,6.09
2019-03-09T21:04:11.554Z,5.99
2019-03-09T21:06:40.130Z,5.99
2019-03-09T21:09:08.962Z,6.06
2019-03-09T21:11:40.669Z,5.98
2019-03-09T21:14:09.394Z,6.00
2019-03-09T21:16:44.039Z,5.95
2019-03-09T21:19:12.791Z,6.01
2019-03-09T21:21:41.367Z,6.00
2019-03-09T21:24:10.388Z,5.94
2019-03-09T21:26:39.404Z,5.94
2019-03-09T21:29:11.606Z,5.85
2019-03-09T21:31:42.982Z,5.85
2019-03-09T21:34:14.782Z,5.81
2019-03-09T21:36:43.399Z,5.81
2019-03-09T21:39:12.042Z,5.74
2019-03-09T21:41:40.665Z,5.74
2019-03-09T21:44:09.311Z,5.69
2019-03-09T21:46:40.698Z,5.61
2019-03-09T21:49:12.415Z,5.50
2019-03-09T21:51:41.241Z,5.42
2019-03-09T21:54:12.614Z,5.39
2019-03-09T21:56:41.189Z,5.34
2019-03-09T21:59:13.131Z,5.34
2019-03-09T22:01:41.743Z,5.25
2019-03-09T22:04:13.430Z,5.34
2019-03-09T22:06:45.005Z,5.35
2019-03-09T22:09:16.416Z,5.35
2019-03-09T22:11:44.985Z,5.33
2019-03-09T22:14:16.361Z,5.26
2019-03-09T22:16:44.970Z,5.19
2019-03-09T22:19:16.364Z,5.19
2019-03-09T22:21:44.991Z,5.19
2019-03-09T22:24:16.824Z,5.23
2019-03-09T22:26:48.480Z,5.14
2019-03-09T22:29:17.110Z,5.14
2019-03-09T22:31:48.599Z,5.12
2019-03-09T22:34:19.982Z,5.16
2019-03-09T22:37:03.233Z,5.15
2019-03-09T22:39:31.908Z,5.08
2019-03-09T22:42:00.881Z,5.08
2019-03-09T22:44:29.491Z,4.97
2019-03-09T22:46:58.106Z,4.97
2019-03-09T22:49:29.781Z,4.90
2019-03-09T22:52:00.771Z,4.78
2019-03-09T22:54:32.328Z,4.69
2019-03-09T22:57:01.343Z,4.60
2019-03-09T22:59:32.722Z,4.60
2019-03-09T23:02:01.847Z,4.59
2019-03-09T23:04:30.875Z,4.63
2019-03-09T23:07:02.418Z,4.51
2019-03-09T23:09:34.148Z,4.51
2019-03-09T23:12:03.029Z,4.45
2019-03-09T23:14:34.745Z,4.40
2019-03-09T23:17:03.372Z,4.37
2019-03-09T23:19:36.907Z,4.28
2019-03-09T23:22:05.524Z,4.28
2019-03-09T23:24:36.783Z,4.33
2019-03-09T23:27:07.647Z,4.28
2019-03-09T23:29:36.273Z,4.24
2019-03-09T23:32:04.923Z,4.20
2019-03-09T23:34:39.341Z,4.19
2019-03-09T23:37:11.130Z,4.12
2019-03-09T23:39:42.347Z,4.12
2019-03-09T23:42:10.915Z,4.16
2019-03-09T23:44:39.459Z,4.13
2019-03-09T23:47:14.193Z,4.04
2019-03-09T23:49:46.368Z,4.04
2019-03-09T23:52:14.932Z,4.04
2019-03-09T23:54:43.515Z,4.11
2019-03-09T23:57:12.124Z,4.12
2019-03-09T23:59:40.673Z,4.07
